Time;durP1;ratioP1;P1;durP2;ratioP2;P2;SDS_P1;SDS_P2;PMS_P1;PMS_P2;Temp;Humidity;BMP_temperature;BMP_pressure;BME280_temperature;BME280_humidity;BME280_pressure;Samples;Min_cycle;Max_cycle;Signal;HPM_P1;HPM_P2
2023/05/18 00:00:01;;;;;;;16.42;7.60;;;;;;;;;;5016829;28;20022;-58
2023/05/18 00:02:27;;;;;;;18.58;7.53;;;;;;;;;;5018069;28;20052;-58
2023/05/18 00:04:53;;;;;;;16.33;7.65;;;;;;;;;;5049802;23;20076;-59
2023/05/18 00:07:19;;;;;;;16.25;7.38;;;;;;;;;;5037532;28;20034;-60
2023/05/18 00:09:45;;;;;;;17.17;7.15;;;;;;;;;;5037577;28;20052;-60
2023/05/18 00:12:11;;;;;;;20.67;7.70;;;;;;;;;;5037420;28;20482;-60
2023/05/18 00:14:37;;;;;;;18.08;7.50;;;;;;;;;;5019303;28;20125;-58
2023/05/18 00:17:03;;;;;;;19.38;6.97;;;;;;;;;;5019561;28;20017;-60
2023/05/18 00:19:30;;;;;;;17.48;6.95;;;;;;;;;;5037465;28;20021;-59
2023/05/18 00:21:56;;;;;;;21.20;8.55;;;;;;;;;;5037442;28;20470;-58
2023/05/18 00:24:22;;;;;;;18.88;7.85;;;;;;;;;;5037173;28;20108;-58
2023/05/18 00:26:49;;;;;;;20.88;7.13;;;;;;;;;;5037281;28;20075;-59
2023/05/18 00:29:15;;;;;;;21.23;7.22;;;;;;;;;;5037303;28;20435;-57
2023/05/18 00:31:43;;;;;;;18.52;6.97;;;;;;;;;;5037132;28;20392;-59
2023/05/18 00:34:09;;;;;;;16.57;7.13;;;;;;;;;;5019313;28;20350;-58
2023/05/18 00:36:36;;;;;;;17.23;7.40;;;;;;;;;;5037142;28;20038;-59
2023/05/18 00:39:02;;;;;;;20.23;8.05;;;;;;;;;;5034720;28;20021;-54
2023/05/18 00:41:28;;;;;;;18.02;8.18;;;;;;;;;;5034148;28;20029;-56
2023/05/18 00:43:54;;;;;;;16.63;7.00;;;;;;;;;;5034205;28;20029;-57
2023/05/18 00:46:21;;;;;;;21.67;7.80;;;;;;;;;;5034027;28;20132;-57
2023/05/18 00:48:48;;;;;;;19.67;7.60;;;;;;;;;;5034203;28;20132;-59
2023/05/18 00:51:14;;;;;;;18.70;7.50;;;;;;;;;;5033922;28;20029;-54
2023/05/18 00:53:40;;;;;;;17.83;7.20;;;;;;;;;;5033786;28;20033;-57
2023/05/18 00:56:06;;;;;;;18.88;6.68;;;;;;;;;;5033569;28;20474;-55
2023/05/18 00:58:32;;;;;;;18.02;6.82;;;;;;;;;;5033920;28;20026;-58
2023/05/18 01:01:01;;;;;;;16.48;6.78;;;;;;;;;;5033604;28;20469;-53
2023/05/18 01:03:29;;;;;;;17.63;6.70;;;;;;;;;;5033881;28;20035;-59
2023/05/18 01:05:56;;;;;;;19.63;7.68;;;;;;;;;;5015818;28;20087;-59
2023/05/18 01:08:23;;;;;;;17.85;7.38;;;;;;;;;;5033831;28;20014;-58
2023/05/18 01:10:53;;;;;;;19.85;7.07;;;;;;;;;;5033803;28;20053;-56
2023/05/18 01:13:25;;;;;;;18.00;7.03;;;;;;;;;;5033784;28;20432;-59
2023/05/18 01:15:54;;;;;;;16.50;6.43;;;;;;;;;;5015934;28;20025;-59
2023/05/18 01:18:27;;;;;;;19.52;6.95;;;;;;;;;;5016071;28;20401;-58
2023/05/18 01:21:10;;;;;;;20.00;7.25;;;;;;;;;;5033848;28;20061;-58
2023/05/18 01:23:43;;;;;;;22.60;8.10;;;;;;;;;;5033844;28;20022;-58
2023/05/18 01:26:15;;;;;;;19.40;7.35;;;;;;;;;;5033742;28;20045;-60
2023/05/18 01:28:44;;;;;;;17.73;6.97;;;;;;;;;;5033648;28;20489;-58
2023/05/18 01:31:10;;;;;;;18.08;7.28;;;;;;;;;;5033719;28;20495;-56
2023/05/18 01:33:36;;;;;;;17.40;7.15;;;;;;;;;;5033465;28;20060;-55
2023/05/18 01:36:02;;;;;;;17.23;6.63;;;;;;;;;;5033567;28;20064;-58
2023/05/18 01:38:28;;;;;;;18.98;8.55;;;;;;;;;;5033367;28;20029;-52
2023/05/18 01:41:04;;;;;;;19.73;7.47;;;;;;;;;;5033335;28;20090;-58
2023/05/18 01:43:34;;;;;;;17.38;6.95;;;;;;;;;;5015417;28;20191;-58
2023/05/18 01:46:19;;;;;;;18.13;6.63;;;;;;;;;;5015155;28;20017;-58
2023/05/18 01:48:48;;;;;;;19.75;7.43;;;;;;;;;;5033081;28;20026;-58
2023/05/18 01:51:16;;;;;;;18.63;6.47;;;;;;;;;;5032761;28;20079;-55
2023/05/18 01:53:44;;;;;;;17.52;7.82;;;;;;;;;;5033029;28;20029;-56
2023/05/18 01:56:11;;;;;;;16.70;7.78;;;;;;;;;;5032598;28;20047;-58
2023/05/18 01:58:37;;;;;;;21.38;7.15;;;;;;;;;;5032987;28;20056;-58
2023/05/18 02:01:04;;;;;;;22.00;6.80;;;;;;;;;;5032797;28;20060;-56
2023/05/18 02:03:33;;;;;;;22.10;7.30;;;;;;;;;;5032755;28;20389;-58
2023/05/18 02:05:59;;;;;;;19.73;6.55;;;;;;;;;;5032717;28;20030;-55
2023/05/18 02:08:25;;;;;;;22.27;6.70;;;;;;;;;;5032800;28;20099;-58
2023/05/18 02:10:51;;;;;;;22.60;7.30;;;;;;;;;;5014957;28;20026;-57
2023/05/18 02:13:17;;;;;;;25.05;7.82;;;;;;;;;;5015172;28;20362;-60
2023/05/18 02:15:43;;;;;;;20.27;7.28;;;;;;;;;;5014426;28;20028;-56
2023/05/18 02:18:09;;;;;;;18.27;6.55;;;;;;;;;;5014863;28;20152;-56
2023/05/18 02:20:36;;;;;;;18.50;6.93;;;;;;;;;;5014783;28;20064;-60
2023/05/18 02:23:02;;;;;;;18.95;7.15;;;;;;;;;;5032563;28;20072;-56
2023/05/18 02:25:28;;;;;;;22.80;7.72;;;;;;;;;;5032142;28;20445;-58
2023/05/18 02:27:55;;;;;;;16.85;6.60;;;;;;;;;;5032365;28;20030;-54
2023/05/18 02:30:21;;;;;;;19.95;7.18;;;;;;;;;;5032993;28;20017;-59
2023/05/18 02:32:48;;;;;;;19.52;7.25;;;;;;;;;;5032542;28;20587;-58
2023/05/18 02:35:15;;;;;;;17.27;6.78;;;;;;;;;;5031852;28;20025;-58
2023/05/18 02:37:42;;;;;;;17.88;7.28;;;;;;;;;;5032231;28;20052;-55
2023/05/18 02:40:13;;;;;;;22.70;8.50;;;;;;;;;;5032137;28;20101;-53
2023/05/18 02:42:39;;;;;;;16.48;6.90;;;;;;;;;;5032085;28;20311;-55
2023/05/18 02:45:06;;;;;;;17.90;6.57;;;;;;;;;;5031352;28;20373;-56
2023/05/18 02:47:32;;;;;;;19.42;6.97;;;;;;;;;;5031798;28;20028;-60
2023/05/18 02:49:57;;;;;;;19.05;7.40;;;;;;;;;;5032007;28;20473;-59
2023/05/18 02:52:23;;;;;;;19.55;7.13;;;;;;;;;;5031661;28;20025;-57
2023/05/18 02:54:49;;;;;;;17.35;6.80;;;;;;;;;;5030596;28;20048;-57
2023/05/18 02:57:16;;;;;;;17.42;6.82;;;;;;;;;;5031985;28;20029;-57
2023/05/18 02:59:42;;;;;;;18.50;7.10;;;;;;;;;;5032171;28;20389;-54
2023/05/18 03:02:08;;;;;;;18.70;7.55;;;;;;;;;;5013387;28;20036;-58
2023/05/18 03:04:34;;;;;;;18.17;6.50;;;;;;;;;;5031308;28;20030;-59
2023/05/18 03:07:01;;;;;;;16.83;6.57;;;;;;;;;;5031732;28;20477;-58
2023/05/18 03:09:27;;;;;;;18.63;6.68;;;;;;;;;;5031522;28;20025;-60
2023/05/18 03:11:53;;;;;;;23.80;7.00;;;;;;;;;;5014117;28;20501;-60
2023/05/18 03:14:19;;;;;;;19.95;7.38;;;;;;;;;;5013758;28;20032;-58
2023/05/18 03:16:45;;;;;;;18.60;7.25;;;;;;;;;;5031668;28;20059;-54
2023/05/18 03:19:13;;;;;;;20.10;7.53;;;;;;;;;;5031554;28;20056;-59
2023/05/18 03:21:39;;;;;;;18.50;6.88;;;;;;;;;;5014157;28;20501;-58
2023/05/18 03:24:05;;;;;;;17.02;6.97;;;;;;;;;;5031512;28;20032;-59
2023/05/18 03:26:31;;;;;;;19.08;6.55;;;;;;;;;;5014094;28;20033;-55
2023/05/18 03:28:57;;;;;;;21.80;7.10;;;;;;;;;;5019660;28;20371;-57
2023/05/18 03:31:24;;;;;;;17.60;6.55;;;;;;;;;;5031586;28;20040;-58
2023/05/18 03:33:50;;;;;;;17.83;6.93;;;;;;;;;;5013744;28;20163;-59
2023/05/18 03:36:16;;;;;;;16.90;7.00;;;;;;;;;;5031060;28;20057;-58
2023/05/18 03:38:45;;;;;;;19.02;7.28;;;;;;;;;;5031146;28;20033;-60
2023/05/18 03:41:11;;;;;;;21.52;7.28;;;;;;;;;;5031242;28;20059;-58
2023/05/18 03:43:37;;;;;;;20.75;8.35;;;;;;;;;;5030883;28;20029;-59
2023/05/18 03:46:03;;;;;;;24.45;8.07;;;;;;;;;;5030772;28;20021;-58
2023/05/18 03:48:29;;;;;;;17.27;7.10;;;;;;;;;;5030883;28;20067;-58
2023/05/18 03:50:55;;;;;;;17.98;7.35;;;;;;;;;;5031492;28;20393;-56
2023/05/18 03:53:21;;;;;;;19.88;8.68;;;;;;;;;;5013369;28;20029;-55
2023/05/18 03:55:48;;;;;;;20.73;7.30;;;;;;;;;;5030711;28;20017;-55
2023/05/18 03:58:14;;;;;;;17.83;7.07;;;;;;;;;;5031016;28;20030;-56
2023/05/18 04:00:41;;;;;;;20.10;6.72;;;;;;;;;;5031189;28;20098;-56
2023/05/18 04:03:11;;;;;;;21.80;7.22;;;;;;;;;;5031191;28;20037;-57
2023/05/18 04:05:37;;;;;;;19.25;7.57;;;;;;;;;;5030645;28;20634;-52
2023/05/18 04:08:03;;;;;;;17.52;6.90;;;;;;;;;;5031310;28;20041;-56
2023/05/18 04:10:30;;;;;;;24.85;10.48;;;;;;;;;;5031519;28;20446;-57
2023/05/18 04:12:56;;;;;;;18.73;7.45;;;;;;;;;;5031002;28;20075;-57
2023/05/18 04:15:22;;;;;;;18.92;7.03;;;;;;;;;;5016781;28;20163;-58
2023/05/18 04:17:52;;;;;;;20.42;6.85;;;;;;;;;;5034798;28;20548;-59
2023/05/18 04:20:19;;;;;;;18.23;7.05;;;;;;;;;;5034428;28;20021;-60
2023/05/18 04:22:46;;;;;;;19.70;7.18;;;;;;;;;;5034599;28;20113;-55
2023/05/18 04:25:16;;;;;;;17.38;6.97;;;;;;;;;;5034341;28;20018;-58
2023/05/18 04:27:44;;;;;;;17.73;7.50;;;;;;;;;;5034697;28;20053;-56
2023/05/18 04:30:10;;;;;;;20.27;7.75;;;;;;;;;;5034460;28;20025;-52
2023/05/18 04:32:36;;;;;;;18.02;7.00;;;;;;;;;;5034514;28;20506;-56
2023/05/18 04:35:05;;;;;;;15.85;6.65;;;;;;;;;;5033966;28;20069;-57
2023/05/18 04:37:31;;;;;;;18.85;6.90;;;;;;;;;;5034549;28;20021;-58
2023/05/18 04:40:00;;;;;;;22.42;8.02;;;;;;;;;;5034521;28;20033;-59
2023/05/18 04:42:26;;;;;;;18.77;8.50;;;;;;;;;;5034441;28;20032;-56
2023/05/18 04:44:53;;;;;;;20.23;8.05;;;;;;;;;;5040404;28;20026;-57
2023/05/18 04:47:22;;;;;;;19.10;7.45;;;;;;;;;;5019727;28;20028;-59
2023/05/18 04:49:51;;;;;;;20.27;7.35;;;;;;;;;;5034642;28;20113;-58
2023/05/18 04:52:17;;;;;;;18.85;7.60;;;;;;;;;;5016760;28;20044;-59
2023/05/18 04:54:43;;;;;;;31.02;9.00;;;;;;;;;;5033746;28;20075;-55
2023/05/18 04:57:09;;;;;;;18.20;7.50;;;;;;;;;;5034088;28;20033;-53
2023/05/18 04:59:36;;;;;;;20.02;7.60;;;;;;;;;;5034165;28;20072;-57
2023/05/18 05:02:02;;;;;;;17.95;7.47;;;;;;;;;;5030524;28;20066;-58
2023/05/18 05:04:28;;;;;;;20.50;8.48;;;;;;;;;;5033233;28;20113;-59
2023/05/18 05:06:54;;;;;;;19.90;7.43;;;;;;;;;;5016076;28;20041;-59
2023/05/18 05:09:20;;;;;;;17.45;6.93;;;;;;;;;;5033739;28;20041;-59
2023/05/18 05:11:46;;;;;;;16.50;7.55;;;;;;;;;;5015846;28;20109;-60
2023/05/18 05:14:12;;;;;;;17.63;7.28;;;;;;;;;;5015561;28;20052;-60
2023/05/18 05:16:39;;;;;;;22.38;8.13;;;;;;;;;;5033790;28;20034;-58
2023/05/18 05:19:05;;;;;;;17.67;7.97;;;;;;;;;;5033722;28;20029;-58
2023/05/18 05:21:31;;;;;;;19.88;8.05;;;;;;;;;;5015899;28;20378;-58
2023/05/18 05:23:57;;;;;;;23.73;9.57;;;;;;;;;;5029287;28;20097;-56
2023/05/18 05:26:23;;;;;;;21.00;8.43;;;;;;;;;;5032384;28;20088;-55
2023/05/18 05:28:49;;;;;;;27.65;10.35;;;;;;;;;;5015466;28;20018;-57
2023/05/18 05:31:15;;;;;;;20.88;8.60;;;;;;;;;;5033404;28;20029;-58
2023/05/18 05:33:44;;;;;;;18.90;8.15;;;;;;;;;;5033358;28;20037;-57
2023/05/18 05:36:10;;;;;;;20.65;9.52;;;;;;;;;;5033109;28;20021;-54
2023/05/18 05:38:36;;;;;;;17.63;7.80;;;;;;;;;;5029980;28;20177;-53
2023/05/18 05:41:02;;;;;;;19.90;9.25;;;;;;;;;;5035820;28;20091;-53
2023/05/18 05:43:28;;;;;;;20.88;8.73;;;;;;;;;;5032992;28;20025;-60
2023/05/18 05:45:54;;;;;;;20.83;8.35;;;;;;;;;;5015058;28;20108;-56
2023/05/18 05:48:20;;;;;;;21.33;8.40;;;;;;;;;;5032720;28;20036;-59
2023/05/18 05:50:46;;;;;;;17.67;8.43;;;;;;;;;;5033079;28;20493;-59
2023/05/18 05:53:16;;;;;;;25.88;9.20;;;;;;;;;;5033104;28;20555;-58
2023/05/18 05:55:42;;;;;;;17.05;8.57;;;;;;;;;;5032744;28;20014;-58
2023/05/18 05:58:08;;;;;;;18.92;8.93;;;;;;;;;;5033085;28;20389;-59
2023/05/18 06:00:35;;;;;;;18.20;8.50;;;;;;;;;;5033086;28;20033;-59
2023/05/18 06:03:01;;;;;;;18.30;7.90;;;;;;;;;;5030751;28;20025;-53
2023/05/18 06:05:27;;;;;;;19.73;7.88;;;;;;;;;;5033014;28;20442;-50
2023/05/18 06:07:54;;;;;;;19.67;8.38;;;;;;;;;;5032409;28;20095;-54
2023/05/18 06:10:20;;;;;;;20.10;9.75;;;;;;;;;;5032623;28;20092;-48
2023/05/18 06:12:46;;;;;;;18.23;8.35;;;;;;;;;;5032459;28;20025;-48
2023/05/18 06:15:12;;;;;;;18.60;8.63;;;;;;;;;;5032974;28;20508;-51
2023/05/18 06:17:38;;;;;;;23.00;9.60;;;;;;;;;;5052552;28;20025;-49
2023/05/18 06:20:07;;;;;;;18.45;8.63;;;;;;;;;;5048907;28;20018;-50
2023/05/18 06:22:33;;;;;;;19.40;8.55;;;;;;;;;;5032274;28;20026;-53
2023/05/18 06:25:00;;;;;;;18.88;8.10;;;;;;;;;;5032098;28;20086;-51
2023/05/18 06:27:26;;;;;;;24.25;10.90;;;;;;;;;;5032225;28;20022;-49
2023/05/18 06:29:52;;;;;;;23.70;10.10;;;;;;;;;;5014536;28;20374;-49
2023/05/18 06:32:18;;;;;;;23.58;9.20;;;;;;;;;;5032337;28;20025;-54
2023/05/18 06:34:44;;;;;;;22.50;9.10;;;;;;;;;;5032005;28;20022;-53
2023/05/18 06:37:11;;;;;;;18.27;8.70;;;;;;;;;;5031728;28;20112;-48
2023/05/18 06:39:37;;;;;;;19.25;8.65;;;;;;;;;;5032121;28;20040;-51
2023/05/18 06:42:03;;;;;;;21.90;8.30;;;;;;;;;;5031928;28;20025;-52
2023/05/18 06:44:29;;;;;;;20.38;9.02;;;;;;;;;;5031472;28;20034;-51
2023/05/18 06:46:55;;;;;;;25.05;14.07;;;;;;;;;;5031788;28;20049;-49
2023/05/18 06:49:21;;;;;;;18.08;8.70;;;;;;;;;;5031908;28;20049;-48
2023/05/18 06:51:47;;;;;;;20.30;9.50;;;;;;;;;;5031964;28;20025;-48
2023/05/18 06:54:13;;;;;;;20.52;9.73;;;;;;;;;;5031443;28;20536;-50
2023/05/18 06:56:39;;;;;;;19.42;9.70;;;;;;;;;;5031808;28;20490;-50
2023/05/18 06:59:05;;;;;;;19.02;9.35;;;;;;;;;;5031745;28;20116;-52
2023/05/18 07:01:32;;;;;;;22.25;10.02;;;;;;;;;;5031815;28;20375;-49
2023/05/18 07:03:58;;;;;;;18.13;9.50;;;;;;;;;;5036828;28;20025;-50
2023/05/18 07:06:24;;;;;;;21.60;9.05;;;;;;;;;;5040763;28;20091;-49
2023/05/18 07:08:50;;;;;;;28.90;14.82;;;;;;;;;;5030862;28;20021;-54
2023/05/18 07:11:16;;;;;;;18.33;9.57;;;;;;;;;;5031452;28;20048;-49
2023/05/18 07:13:42;;;;;;;21.50;9.70;;;;;;;;;;5031477;28;20151;-49
2023/05/18 07:16:08;;;;;;;17.20;9.27;;;;;;;;;;5030272;28;20025;-49
2023/05/18 07:18:34;;;;;;;22.75;9.85;;;;;;;;;;5013132;28;20450;-54
2023/05/18 07:21:00;;;;;;;20.80;9.82;;;;;;;;;;5031115;28;20160;-54
2023/05/18 07:23:27;;;;;;;18.98;9.82;;;;;;;;;;5031125;28;20096;-59
2023/05/18 07:25:53;;;;;;;17.42;8.95;;;;;;;;;;5030881;28;20493;-60
2023/05/18 07:28:19;;;;;;;17.58;10.07;;;;;;;;;;5030943;28;20021;-60
2023/05/18 07:30:45;;;;;;;18.58;10.05;;;;;;;;;;5030933;28;20049;-60
2023/05/18 07:33:11;;;;;;;20.33;10.95;;;;;;;;;;5031442;28;20029;-61
2023/05/18 07:35:37;;;;;;;18.55;10.13;;;;;;;;;;5031194;28;20029;-56
2023/05/18 07:38:03;;;;;;;21.10;10.52;;;;;;;;;;5031360;28;20112;-60
2023/05/18 07:40:29;;;;;;;19.95;9.85;;;;;;;;;;5031489;28;20033;-59
2023/05/18 07:42:55;;;;;;;19.20;9.80;;;;;;;;;;5031113;28;20037;-55
2023/05/18 07:45:22;;;;;;;21.77;10.45;;;;;;;;;;5030965;28;20097;-59
2023/05/18 07:47:48;;;;;;;20.02;9.68;;;;;;;;;;5037030;28;20024;-61
2023/05/18 07:50:14;;;;;;;20.35;9.63;;;;;;;;;;5054871;28;20517;-59
2023/05/18 07:52:41;;;;;;;19.85;9.63;;;;;;;;;;5046741;28;20040;-59
2023/05/18 07:55:07;;;;;;;18.98;9.98;;;;;;;;;;5034617;28;20022;-58
2023/05/18 07:57:34;;;;;;;19.98;10.85;;;;;;;;;;5034798;28;20037;-60
2023/05/18 08:00:00;;;;;;;23.00;10.50;;;;;;;;;;5035080;28;20021;-56
2023/05/18 08:02:26;;;;;;;19.23;10.57;;;;;;;;;;5016982;28;20033;-60
2023/05/18 08:04:53;;;;;;;21.80;10.00;;;;;;;;;;5045933;28;20036;-53
2023/05/18 08:07:20;;;;;;;19.88;10.10;;;;;;;;;;5037441;28;20056;-58
2023/05/18 08:09:46;;;;;;;21.73;9.73;;;;;;;;;;5016741;28;20028;-56
2023/05/18 08:12:12;;;;;;;20.92;10.20;;;;;;;;;;5034628;28;20029;-60
2023/05/18 08:14:38;;;;;;;22.15;10.20;;;;;;;;;;5034557;28;20112;-59
2023/05/18 08:17:04;;;;;;;20.05;9.48;;;;;;;;;;5034481;28;20036;-58
2023/05/18 08:19:30;;;;;;;19.95;10.18;;;;;;;;;;5035404;28;20111;-60
2023/05/18 08:21:56;;;;;;;18.17;9.75;;;;;;;;;;5037976;28;20037;-58
2023/05/18 08:24:22;;;;;;;18.00;9.75;;;;;;;;;;5031379;28;20032;-56
2023/05/18 08:26:48;;;;;;;20.10;10.70;;;;;;;;;;5034351;28;20104;-58
2023/05/18 08:29:14;;;;;;;19.25;10.07;;;;;;;;;;5034425;28;20438;-56
2023/05/18 08:31:41;;;;;;;17.95;10.45;;;;;;;;;;5034480;28;20060;-52
2023/05/18 08:34:07;;;;;;;19.13;10.15;;;;;;;;;;5034033;28;20097;-53
2023/05/18 08:36:34;;;;;;;18.27;10.98;;;;;;;;;;5016702;28;20509;-54
2023/05/18 08:39:01;;;;;;;21.33;10.00;;;;;;;;;;5034588;28;20029;-58
2023/05/18 08:41:30;;;;;;;19.45;11.15;;;;;;;;;;5034183;28;20021;-57
2023/05/18 08:44:01;;;;;;;18.50;9.90;;;;;;;;;;5034022;28;20020;-52
2023/05/18 08:46:41;;;;;;;19.50;10.30;;;;;;;;;;5016705;28;20025;-56
2023/05/18 08:49:08;;;;;;;19.08;10.70;;;;;;;;;;5033925;28;20033;-55
2023/05/18 08:51:35;;;;;;;18.83;10.38;;;;;;;;;;5034346;28;20033;-53
2023/05/18 08:54:02;;;;;;;17.85;9.68;;;;;;;;;;5033753;28;20456;-59
2023/05/18 08:56:30;;;;;;;17.67;9.77;;;;;;;;;;5034094;28;20053;-53
2023/05/18 08:58:57;;;;;;;27.75;14.75;;;;;;;;;;5033762;28;20036;-55
2023/05/18 09:01:30;;;;;;;19.63;10.52;;;;;;;;;;5032419;28;20660;-54
2023/05/18 09:03:56;;;;;;;17.08;10.10;;;;;;;;;;5019679;28;20432;-55
2023/05/18 09:06:23;;;;;;;18.50;9.82;;;;;;;;;;5033990;28;20389;-55
2023/05/18 09:08:51;;;;;;;17.58;9.80;;;;;;;;;;5033947;28;20091;-52
2023/05/18 09:11:17;;;;;;;24.45;10.10;;;;;;;;;;5034442;28;20503;-58
2023/05/18 09:13:43;;;;;;;22.15;10.70;;;;;;;;;;5039476;28;20044;-56
2023/05/18 09:16:09;;;;;;;18.30;10.30;;;;;;;;;;5037291;28;20057;-58
2023/05/18 09:18:35;;;;;;;20.63;9.95;;;;;;;;;;5034850;28;20025;-57
2023/05/18 09:21:01;;;;;;;19.80;10.10;;;;;;;;;;5033876;28;20492;-58
2023/05/18 09:23:27;;;;;;;22.13;10.90;;;;;;;;;;5033583;28;20060;-55
2023/05/18 09:25:54;;;;;;;21.33;11.13;;;;;;;;;;5033090;28;20061;-53
2023/05/18 09:28:35;;;;;;;17.38;9.65;;;;;;;;;;5034228;28;20079;-56
2023/05/18 09:31:01;;;;;;;23.92;10.52;;;;;;;;;;5033505;28;20100;-55
2023/05/18 09:33:32;;;;;;;20.08;10.43;;;;;;;;;;5033776;28;20464;-58
2023/05/18 09:35:58;;;;;;;21.88;11.02;;;;;;;;;;5033085;28;20053;-52
2023/05/18 09:38:26;;;;;;;19.08;10.52;;;;;;;;;;5033190;28;20045;-55
2023/05/18 09:40:52;;;;;;;18.35;10.07;;;;;;;;;;5032792;28;20052;-54
2023/05/18 09:43:19;;;;;;;17.92;9.65;;;;;;;;;;5032378;28;20022;-52
2023/05/18 09:45:47;;;;;;;19.83;10.25;;;;;;;;;;5014894;28;20170;-56
2023/05/18 09:48:14;;;;;;;21.27;10.48;;;;;;;;;;5033200;28;20057;-55
2023/05/18 09:50:40;;;;;;;23.73;10.63;;;;;;;;;;5032893;28;20107;-54
2023/05/18 09:53:08;;;;;;;20.45;10.70;;;;;;;;;;5033045;28;20036;-55
2023/05/18 09:55:37;;;;;;;20.88;11.10;;;;;;;;;;5032722;28;20431;-56
2023/05/18 09:58:03;;;;;;;16.52;10.32;;;;;;;;;;5032031;28;20029;-54
2023/05/18 10:00:31;;;;;;;19.48;10.82;;;;;;;;;;5029768;28;20057;-58
2023/05/18 10:02:58;;;;;;;20.23;11.43;;;;;;;;;;5029802;28;20040;-55
2023/05/18 10:05:26;;;;;;;18.85;10.85;;;;;;;;;;5046444;28;20029;-58
2023/05/18 10:07:53;;;;;;;19.48;11.65;;;;;;;;;;5050821;28;20032;-57
2023/05/18 10:10:23;;;;;;;20.63;11.23;;;;;;;;;;5033042;28;20044;-55
2023/05/18 10:12:52;;;;;;;20.83;11.07;;;;;;;;;;5050715;28;20112;-52
2023/05/18 10:15:20;;;;;;;20.77;11.20;;;;;;;;;;5034164;28;20021;-55
2023/05/18 10:17:47;;;;;;;18.85;10.70;;;;;;;;;;5052414;28;20082;-53
2023/05/18 10:20:23;;;;;;;18.38;10.77;;;;;;;;;;5052305;28;20087;-52
2023/05/18 10:22:49;;;;;;;19.13;11.05;;;;;;;;;;5034460;28;20408;-56
2023/05/18 10:25:20;;;;;;;18.38;10.55;;;;;;;;;;5034051;28;20033;-56
2023/05/18 10:27:48;;;;;;;19.80;10.85;;;;;;;;;;5034355;28;20028;-53
2023/05/18 10:30:15;;;;;;;19.83;11.50;;;;;;;;;;5052018;28;20033;-57
2023/05/18 10:32:42;;;;;;;21.40;11.38;;;;;;;;;;5051938;28;20104;-55
2023/05/18 10:35:09;;;;;;;22.48;11.05;;;;;;;;;;5051783;28;20491;-57
2023/05/18 10:37:37;;;;;;;22.60;11.52;;;;;;;;;;5051780;28;20025;-51
2023/05/18 10:40:05;;;;;;;18.98;11.07;;;;;;;;;;5033942;28;20021;-58
2023/05/18 10:42:31;;;;;;;19.73;10.95;;;;;;;;;;5051636;28;20024;-51
2023/05/18 10:45:00;;;;;;;21.58;11.70;;;;;;;;;;5051516;28;20562;-56
2023/05/18 10:47:25;;;;;;;;;;;;;;;;;;5052700;28;20029;-56
2023/05/18 10:49:52;;;;;;;20.98;12.63;;;;;;;;;;5052347;28;20275;-59
2023/05/18 10:52:18;;;;;;;18.75;10.40;;;;;;;;;;5051897;28;20029;-56
2023/05/18 10:54:44;;;;;;;20.50;11.40;;;;;;;;;;5051260;28;20033;-52
2023/05/18 10:57:15;;;;;;;18.55;10.32;;;;;;;;;;5051575;28;20220;-54
2023/05/18 10:59:43;;;;;;;21.38;11.25;;;;;;;;;;5024803;28;20029;-53
2023/05/18 11:02:13;;;;;;;19.30;11.10;;;;;;;;;;4679835;28;9999717;-56
2023/05/18 11:04:40;;;;;;;20.23;10.52;;;;;;;;;;5010886;28;20544;-55
2023/05/18 11:07:10;;;;;;;22.92;11.10;;;;;;;;;;5026645;28;20057;-55
2023/05/18 11:09:36;;;;;;;17.08;10.35;;;;;;;;;;5027987;28;20112;-58
2023/05/18 11:12:02;;;;;;;19.92;12.23;;;;;;;;;;5009804;28;20121;-54
2023/05/18 11:14:29;;;;;;;22.70;11.88;;;;;;;;;;5026510;28;20032;-53
2023/05/18 11:17:15;;;;;;;21.23;11.63;;;;;;;;;;5028303;28;20125;-57
2023/05/18 11:20:01;;;;;;;20.52;13.25;;;;;;;;;;5022164;28;20061;-56
2023/05/18 11:22:46;;;;;;;18.00;11.90;;;;;;;;;;5027838;28;20034;-56
2023/05/18 11:25:33;;;;;;;18.63;11.70;;;;;;;;;;5027803;28;20029;-56
2023/05/18 11:28:00;;;;;;;19.67;12.48;;;;;;;;;;5011364;28;20042;-53
2023/05/18 11:30:26;;;;;;;18.83;11.32;;;;;;;;;;5027972;28;20028;-54
2023/05/18 11:32:52;;;;;;;20.98;12.13;;;;;;;;;;5027966;28;20029;-58
2023/05/18 11:35:24;;;;;;;19.25;12.73;;;;;;;;;;5027828;28;20528;-56
2023/05/18 11:37:51;;;;;;;18.50;11.88;;;;;;;;;;5027960;28;20213;-55
2023/05/18 11:40:36;;;;;;;21.42;12.63;;;;;;;;;;5028294;28;20065;-59
2023/05/18 11:43:02;;;;;;;18.55;12.50;;;;;;;;;;5029046;28;20030;-53
2023/05/18 11:45:28;;;;;;;20.35;12.75;;;;;;;;;;5028967;28;20029;-56
2023/05/18 11:47:56;;;;;;;21.48;13.80;;;;;;;;;;5011645;28;20375;-56
2023/05/18 11:50:22;;;;;;;17.02;12.43;;;;;;;;;;4994271;28;20105;-57
2023/05/18 11:52:51;;;;;;;18.73;11.95;;;;;;;;;;4993552;28;20038;-55
2023/05/18 11:55:17;;;;;;;;;;;;;;;;;;5011495;28;20026;-56
2023/05/18 11:57:46;;;;;;;18.05;11.55;;;;;;;;;;5011461;28;19913;-56
2023/05/18 12:00:13;;;;;;;19.92;11.95;;;;;;;;;;5011315;28;20029;-57
2023/05/18 12:02:43;;;;;;;21.90;12.68;;;;;;;;;;5027945;28;20028;-59
2023/05/18 12:05:09;;;;;;;18.30;11.68;;;;;;;;;;4702477;23;9999715;-59
2023/05/18 12:07:36;;;;;;;20.85;12.02;;;;;;;;;;5026093;28;20021;-59
2023/05/18 12:10:04;;;;;;;19.02;12.60;;;;;;;;;;5028443;28;20029;-59
2023/05/18 12:12:30;;;;;;;19.60;12.50;;;;;;;;;;5027513;28;20060;-60
2023/05/18 12:14:57;;;;;;;20.77;12.52;;;;;;;;;;5026869;28;20028;-60
2023/05/18 12:17:23;;;;;;;20.08;12.45;;;;;;;;;;5025840;28;20079;-57
2023/05/18 12:19:49;;;;;;;18.42;12.18;;;;;;;;;;5027483;28;20618;-58
2023/05/18 12:22:16;;;;;;;19.08;11.98;;;;;;;;;;5027238;28;20048;-60
2023/05/18 12:24:42;;;;;;;17.98;12.15;;;;;;;;;;5026888;28;20026;-60
2023/05/18 12:27:10;;;;;;;17.52;11.93;;;;;;;;;;5027712;28;20032;-59
2023/05/18 12:29:40;;;;;;;19.07;12.63;;;;;;;;;;5028840;28;20034;-60
2023/05/18 12:32:07;;;;;;;20.83;12.65;;;;;;;;;;5028642;28;20029;-60
2023/05/18 12:34:33;;;;;;;18.67;12.50;;;;;;;;;;5030471;28;20032;-60
2023/05/18 12:36:59;;;;;;;19.23;13.07;;;;;;;;;;5033294;28;20105;-60
2023/05/18 12:39:25;;;;;;;20.35;13.00;;;;;;;;;;5032946;28;20033;-60
2023/05/18 12:41:51;;;;;;;19.10;14.15;;;;;;;;;;5033252;28;20444;-59
2023/05/18 12:44:17;;;;;;;20.15;13.88;;;;;;;;;;5032847;28;20026;-59
2023/05/18 12:46:43;;;;;;;27.52;18.13;;;;;;;;;;5032866;28;20141;-60
2023/05/18 12:49:09;;;;;;;20.05;13.43;;;;;;;;;;5032218;28;20489;-60
2023/05/18 12:51:36;;;;;;;20.08;13.55;;;;;;;;;;5032570;28;20025;-60
2023/05/18 12:54:03;;;;;;;19.55;12.68;;;;;;;;;;5033224;28;20032;-57
2023/05/18 12:56:50;;;;;;;18.38;12.32;;;;;;;;;;5033604;28;20040;-63
2023/05/18 12:59:17;;;;;;;24.48;12.80;;;;;;;;;;5033435;28;20018;-59
2023/05/18 13:01:43;;;;;;;20.38;13.27;;;;;;;;;;5033218;28;20053;-60
2023/05/18 13:04:10;;;;;;;18.48;12.60;;;;;;;;;;5032821;28;20397;-60
2023/05/18 13:06:39;;;;;;;18.58;12.48;;;;;;;;;;5032492;28;20111;-58
2023/05/18 13:09:12;;;;;;;18.83;12.48;;;;;;;;;;5032497;28;20032;-59
2023/05/18 13:11:38;;;;;;;20.65;13.05;;;;;;;;;;5031372;28;20499;-59
2023/05/18 13:14:05;;;;;;;19.05;12.93;;;;;;;;;;5031861;28;20052;-60
2023/05/18 13:16:33;;;;;;;19.88;13.15;;;;;;;;;;5031949;28;20033;-59
2023/05/18 13:19:00;;;;;;;18.30;12.30;;;;;;;;;;4680530;28;10000056;-59
2023/05/18 13:21:26;;;;;;;19.52;13.15;;;;;;;;;;5029197;28;20108;-58
2023/05/18 13:23:53;;;;;;;18.80;12.40;;;;;;;;;;5029208;28;20036;-57
2023/05/18 13:26:22;;;;;;;18.75;12.63;;;;;;;;;;5029222;28;20136;-60
2023/05/18 13:28:51;;;;;;;19.48;13.00;;;;;;;;;;5030526;28;20025;-60
2023/05/18 13:31:17;;;;;;;19.10;13.02;;;;;;;;;;5029913;28;20030;-63
2023/05/18 13:33:43;;;;;;;23.42;13.88;;;;;;;;;;5031189;28;20018;-62
2023/05/18 13:36:09;;;;;;;18.40;13.70;;;;;;;;;;5031430;28;20032;-62
2023/05/18 13:38:36;;;;;;;19.00;13.00;;;;;;;;;;5030412;28;20025;-62
2023/05/18 13:41:03;;;;;;;19.20;13.57;;;;;;;;;;5029253;28;20478;-62
2023/05/18 13:43:29;;;;;;;18.60;13.02;;;;;;;;;;5030401;28;20105;-62
2023/05/18 13:45:55;;;;;;;20.85;13.30;;;;;;;;;;5029503;28;20075;-60
2023/05/18 13:48:21;;;;;;;19.58;13.23;;;;;;;;;;5029457;28;20022;-62
2023/05/18 13:50:47;;;;;;;18.75;12.85;;;;;;;;;;5030306;28;20049;-62
2023/05/18 13:53:13;;;;;;;17.90;12.73;;;;;;;;;;5030867;28;20068;-62
2023/05/18 13:55:40;;;;;;;18.35;12.70;;;;;;;;;;5031096;28;20033;-60
2023/05/18 13:58:06;;;;;;;19.30;12.30;;;;;;;;;;5046611;28;20037;-61
2023/05/18 14:00:32;;;;;;;17.73;12.52;;;;;;;;;;5031122;28;20040;-62
2023/05/18 14:02:58;;;;;;;18.50;12.65;;;;;;;;;;5031005;28;20034;-61
2023/05/18 14:05:24;;;;;;;18.92;12.85;;;;;;;;;;5031744;28;20037;-63
2023/05/18 14:07:53;;;;;;;18.30;13.13;;;;;;;;;;5033501;28;20026;-61
2023/05/18 14:10:20;;;;;;;20.48;13.45;;;;;;;;;;5031991;28;20022;-62
2023/05/18 14:12:46;;;;;;;19.60;12.75;;;;;;;;;;5030895;28;20030;-62
2023/05/18 14:15:12;;;;;;;18.48;13.23;;;;;;;;;;5030724;28;20485;-62
2023/05/18 14:17:39;;;;;;;20.52;13.20;;;;;;;;;;5031057;28;20434;-62
2023/05/18 14:20:05;;;;;;;20.40;13.25;;;;;;;;;;5029856;28;20068;-61
2023/05/18 14:22:31;;;;;;;19.02;12.43;;;;;;;;;;5030620;28;20401;-62